createdAt,value
2022-11-01T00:04:15.510Z,15.90
2022-11-01T00:09:18.257Z,15.90
2022-11-01T00:14:20.331Z,15.90
2022-11-01T00:19:22.456Z,16.00
2022-11-01T00:29:27.231Z,16.00
2022-11-01T00:34:29.369Z,16.10
2022-11-01T00:39:31.943Z,16.10
2022-11-01T00:44:33.969Z,16.10
2022-11-01T00:49:36.025Z,16.10
2022-11-01T00:54:38.087Z,16.10
2022-11-01T00:59:41.088Z,16.20
2022-11-01T01:04:43.574Z,16.20
2022-11-01T01:09:45.655Z,16.20
2022-11-01T01:14:47.854Z,16.30
2022-11-01T01:19:50.057Z,16.30
2022-11-01T01:24:52.135Z,16.50
2022-11-01T01:29:54.530Z,16.40
2022-11-01T01:34:56.616Z,16.50
2022-11-01T01:39:59.115Z,16.30
2022-11-01T01:45:04.160Z,16.50
2022-11-01T01:50:26.885Z,16.50
2022-11-01T01:55:41.756Z,16.50
2022-11-01T02:00:44.780Z,16.60
2022-11-01T02:05:54.806Z,16.60
2022-11-01T02:11:00.592Z,16.60
2022-11-01T02:16:08.310Z,16.80
2022-11-01T02:21:31.670Z,16.60
2022-11-01T02:27:01.511Z,16.60
2022-11-01T02:32:18.515Z,16.60
2022-11-01T02:37:48.846Z,16.50
2022-11-01T02:42:57.198Z,16.70
2022-11-01T02:48:00.861Z,16.70
2022-11-01T02:53:04.233Z,16.70
2022-11-01T02:58:12.314Z,16.70
2022-11-01T03:03:31.493Z,16.70
2022-11-01T03:08:37.768Z,16.70
2022-11-01T03:13:57.997Z,16.80
2022-11-01T03:19:18.578Z,16.80
2022-11-01T03:24:24.737Z,16.80
2022-11-01T03:29:30.862Z,16.70
2022-11-01T03:34:36.471Z,16.90
2022-11-01T03:39:46.720Z,16.90
2022-11-01T03:44:54.105Z,16.90
2022-11-01T03:50:17.349Z,17.00
2022-11-01T03:55:21.047Z,17.00
2022-11-01T04:00:29.395Z,17.00
2022-11-01T04:05:33.387Z,17.10
2022-11-01T04:10:35.874Z,17.20
2022-11-01T04:15:56.414Z,17.10
2022-11-01T04:21:01.299Z,17.10
2022-11-01T04:26:05.184Z,17.10
2022-11-01T04:31:07.770Z,17.10
2022-11-01T04:36:09.958Z,17.20
2022-11-01T04:41:12.102Z,17.20
2022-11-01T04:46:14.260Z,17.00
2022-11-01T04:51:16.546Z,17.40
2022-11-01T04:56:18.656Z,17.30
2022-11-01T05:01:20.865Z,17.30
2022-11-01T05:06:23.269Z,17.40
2022-11-01T05:11:25.750Z,17.60
2022-11-01T05:16:28.829Z,17.10
2022-11-01T05:21:30.825Z,17.40
2022-11-01T05:26:34.056Z,17.50
2022-11-01T05:31:36.899Z,17.50
2022-11-01T05:36:39.425Z,17.50
2022-11-01T05:41:41.849Z,17.50
2022-11-01T05:46:43.905Z,17.50
2022-11-01T05:51:45.995Z,17.60
2022-11-01T05:56:48.190Z,17.50
2022-11-01T06:01:50.656Z,17.50
2022-11-01T06:06:52.879Z,17.50
2022-11-01T06:11:55.003Z,17.60
2022-11-01T06:16:57.158Z,17.50
2022-11-01T06:21:59.315Z,17.70
2022-11-01T06:27:01.403Z,17.70
2022-11-01T06:32:04.752Z,17.60
2022-11-01T06:37:06.879Z,17.50
2022-11-01T06:42:10.120Z,17.50
2022-11-01T06:47:13.156Z,17.50
2022-11-01T06:52:15.263Z,17.50
2022-11-01T06:57:17.377Z,17.60
2022-11-01T07:07:24.029Z,17.70
2022-11-01T07:12:26.120Z,17.40
2022-11-01T07:17:28.170Z,17.70
2022-11-01T07:22:30.239Z,17.60
2022-11-01T07:27:36.122Z,17.70
2022-11-01T07:32:39.953Z,17.70
2022-11-01T07:37:42.244Z,17.80
2022-11-01T07:42:45.734Z,17.80
2022-11-01T07:47:47.991Z,17.90
2022-11-01T07:53:03.323Z,18.00
2022-11-01T07:58:06.202Z,18.20
2022-11-01T08:03:14.418Z,18.00
2022-11-01T08:08:16.852Z,18.20
2022-11-01T08:13:24.001Z,18.30
2022-11-01T08:18:26.070Z,18.40
2022-11-01T08:23:28.162Z,18.40
2022-11-01T08:28:30.348Z,18.50
2022-11-01T08:33:32.534Z,18.60
2022-11-01T08:38:34.617Z,18.60
2022-11-01T08:43:40.470Z,18.70
2022-11-01T08:48:43.194Z,18.70
2022-11-01T08:53:45.399Z,18.70
2022-11-01T08:58:50.662Z,18.70
2022-11-01T09:03:57.743Z,18.80
2022-11-01T09:09:00.244Z,18.80
2022-11-01T09:14:02.746Z,18.80
2022-11-01T09:19:04.866Z,18.80
2022-11-01T09:24:07.009Z,18.80
2022-11-01T09:29:09.558Z,18.70
2022-11-01T09:34:12.062Z,18.50
2022-11-01T09:39:16.395Z,18.50
2022-11-01T09:44:25.330Z,18.50
2022-11-01T09:49:33.488Z,18.50
2022-11-01T09:59:58.836Z,18.50
2022-11-01T10:05:26.765Z,18.40
2022-11-01T10:16:07.995Z,18.60
2022-11-01T10:21:15.082Z,18.50
2022-11-01T10:26:30.894Z,18.50
2022-11-01T10:31:39.216Z,18.40
2022-11-01T10:36:46.675Z,18.40
2022-11-01T10:41:51.320Z,18.50
2022-11-01T10:46:54.370Z,18.50
2022-11-01T10:52:02.153Z,18.50
2022-11-01T10:57:10.801Z,18.60
2022-11-01T11:02:24.052Z,18.60
2022-11-01T11:07:30.729Z,18.70
2022-11-01T11:12:34.463Z,18.70
2022-11-01T11:17:43.501Z,19.00
2022-11-01T11:22:45.672Z,19.20
2022-11-01T11:27:49.969Z,19.40
2022-11-01T11:32:53.662Z,19.60
2022-11-01T11:37:59.105Z,19.80
2022-11-01T11:43:31.099Z,19.80
2022-11-01T11:48:33.255Z,20.10
2022-11-01T11:53:35.340Z,20.30
2022-11-01T11:58:48.862Z,20.40
2022-11-01T12:08:59.947Z,20.70
2022-11-01T12:14:04.910Z,20.90
2022-11-01T12:19:23.700Z,21.10
2022-11-01T12:24:43.880Z,21.30
2022-11-01T12:29:54.970Z,21.60
2022-11-01T12:35:02.388Z,21.60
2022-11-01T12:40:28.468Z,22.00
2022-11-01T12:45:49.986Z,22.10
2022-11-01T12:51:11.543Z,22.30
2022-11-01T12:56:13.866Z,22.40
2022-11-01T13:01:26.386Z,22.50
2022-11-01T13:06:34.420Z,22.70
2022-11-01T13:12:04.725Z,22.80
2022-11-01T13:17:35.339Z,23.00
2022-11-01T13:22:59.371Z,23.10
2022-11-01T13:33:49.854Z,22.90
2022-11-01T13:39:22.196Z,22.90
2022-11-01T13:44:28.567Z,22.90
2022-11-01T13:49:36.244Z,22.90
2022-11-01T13:55:18.478Z,22.90
2022-11-01T14:00:44.156Z,22.90
2022-11-01T14:05:48.369Z,22.70
2022-11-01T14:10:51.191Z,22.70
2022-11-01T14:15:57.118Z,22.50
2022-11-01T14:21:29.173Z,22.40
2022-11-01T14:26:46.369Z,22.30
2022-11-01T14:31:52.368Z,22.20
2022-11-01T14:36:57.560Z,21.80
2022-11-01T14:42:02.675Z,21.50
2022-11-01T14:47:23.615Z,21.20
2022-11-01T14:52:45.563Z,21.00
2022-11-01T14:57:49.102Z,20.70
2022-11-01T15:02:51.936Z,20.60
2022-11-01T15:08:01.203Z,20.20
2022-11-01T15:13:04.762Z,20.20
2022-11-01T15:18:19.085Z,20.00
2022-11-01T15:23:27.087Z,19.80
2022-11-01T15:28:42.723Z,19.70
2022-11-01T15:33:59.937Z,19.60
2022-11-01T15:39:04.779Z,19.40
2022-11-01T15:44:18.117Z,19.30
2022-11-01T15:49:29.495Z,19.30
2022-11-01T15:55:10.186Z,19.10
2022-11-01T16:00:22.156Z,18.90
2022-11-01T16:05:29.970Z,18.80
2022-11-01T16:10:32.162Z,18.60
2022-11-01T16:15:34.984Z,18.50
2022-11-01T16:20:43.182Z,18.50
2022-11-01T16:25:45.294Z,18.20
2022-11-01T16:30:55.317Z,18.10
2022-11-01T16:36:03.205Z,17.90
2022-11-01T16:41:27.436Z,17.70
2022-11-01T16:46:30.527Z,17.60
2022-11-01T16:51:33.336Z,17.50
2022-11-01T16:56:41.382Z,17.30
2022-11-01T17:01:45.919Z,17.30
2022-11-01T17:06:48.777Z,17.50
2022-11-01T17:11:53.460Z,17.00
2022-11-01T17:16:56.403Z,16.60
2022-11-01T17:22:06.774Z,16.80
2022-11-01T17:27:09.829Z,16.90
2022-11-01T17:32:12.609Z,16.50
2022-11-01T17:37:17.003Z,16.50
2022-11-01T17:42:19.071Z,16.40
2022-11-01T17:47:21.203Z,16.50
2022-11-01T17:52:23.375Z,16.20
2022-11-01T17:57:25.885Z,16.10
2022-11-01T18:02:28.170Z,16.10
2022-11-01T18:07:38.565Z,15.80
2022-11-01T18:12:47.921Z,16.00
2022-11-01T18:18:03.611Z,15.90
2022-11-01T18:23:11.684Z,15.80
2022-11-01T18:28:26.250Z,15.80
2022-11-01T18:33:40.135Z,15.70
2022-11-01T18:38:52.832Z,15.60
2022-11-01T18:43:54.971Z,15.50
2022-11-01T18:49:02.026Z,15.30
2022-11-01T18:54:10.875Z,15.30
2022-11-01T18:59:16.313Z,15.20
2022-11-01T19:04:27.116Z,15.10
2022-11-01T19:09:30.040Z,15.00
2022-11-01T19:14:32.827Z,14.80
2022-11-01T19:19:36.521Z,14.80
2022-11-01T19:24:39.928Z,14.60
2022-11-01T19:29:42.098Z,14.60
2022-11-01T19:34:44.269Z,14.60
2022-11-01T19:39:47.060Z,14.30
2022-11-01T19:44:49.089Z,14.30
2022-11-01T19:49:51.219Z,14.30
2022-11-01T19:54:54.308Z,14.20
2022-11-01T20:00:20.870Z,14.10
2022-11-01T20:05:25.587Z,14.00
2022-11-01T20:10:31.132Z,13.90
2022-11-01T20:15:33.299Z,13.80
2022-11-01T20:20:35.505Z,13.80
2022-11-01T20:25:38.346Z,13.60
2022-11-01T20:35:43.124Z,13.30
2022-11-01T20:40:45.370Z,13.10
2022-11-01T20:45:47.799Z,13.10
2022-11-01T20:50:49.880Z,13.00
2022-11-01T20:55:52.158Z,13.00
2022-11-01T21:00:54.532Z,13.00
2022-11-01T21:05:56.868Z,12.90
2022-11-01T21:11:20.472Z,12.80
2022-11-01T21:16:30.452Z,12.80
2022-11-01T21:21:34.175Z,12.50
2022-11-01T21:26:36.836Z,12.40
2022-11-01T21:31:39.220Z,12.40
2022-11-01T21:36:47.841Z,12.20
2022-11-01T21:41:52.490Z,11.90
2022-11-01T21:47:14.653Z,11.90
2022-11-01T21:52:20.359Z,11.90
2022-11-01T21:57:22.515Z,11.80
2022-11-01T22:02:24.675Z,12.10
2022-11-01T22:07:26.863Z,12.10
2022-11-01T22:12:28.973Z,11.90
2022-11-01T22:17:31.385Z,11.90
2022-11-01T22:22:33.467Z,11.80
2022-11-01T22:27:36.346Z,12.00
2022-11-01T22:32:38.335Z,12.00
2022-11-01T22:37:41.048Z,11.80
2022-11-01T22:42:43.133Z,11.80
2022-11-01T22:47:46.415Z,11.80
2022-11-01T22:52:48.683Z,11.80
2022-11-01T22:57:54.296Z,11.90
2022-11-01T23:03:10.240Z,11.70
2022-11-01T23:08:27.633Z,11.60
2022-11-01T23:13:54.937Z,11.60
2022-11-01T23:19:01.146Z,11.60
2022-11-01T23:24:03.260Z,11.60
2022-11-01T23:29:05.480Z,11.70
2022-11-01T23:34:10.620Z,11.80
2022-11-01T23:39:14.506Z,11.80
2022-11-01T23:44:29.877Z,11.80
2022-11-01T23:49:34.462Z,11.80
2022-11-01T23:54:42.850Z,11.80
2022-11-01T23:59:45.476Z,11.90
